Relevés horaires Beauvechain (Belgique)


Relevés horaires à Beauvechain - Samedi 29 Févr. 2020
Heure UTC1 Température [°C] Vent [km/h] Hum. [%] Pres.4 [hPa] Visi. [Km] Nébu. [octa] Préc.5 [mm] Cond.
2m. Res. Ros. Dir.2 Vit. Moy. Raf.3
23:00 4.9 1.4 1.7 SSO 16.7 -- 24.1 80 995.6(0.6/3h) 20 -- -- --
22:00 4.8 1.2 2.1 SO 16.7 -- 25.9 83 995.5(0.8/3h) 20 -- -- --
21:00 5.1 1.6 1.9 OSO 16.7 -- 25.9 80 995.3(0.9/3h) 20 -- -- NA
20:00 5.8 2.8 0.6 SSO 14.8 -- 22.2 69 995(1.4/3h) 20 -- -- --
19:00 6.1 3.1 0.7 SSO 14.8 -- 22.2 68 994.6(1.6/3h) 20 -- -- --
18:00 6.2 3.5 2.2 SSO 13.0 -- 38.9 75 994.3(2.1/3h) 20 -- 0.9/12h
NA
17:00 6.8 4.3 2.1 SO 13.0 -- 25.9 72 993.4(2.9/3h) 18 -- -- --
16:00 7.0 4 2.3 SO 16.7 -- 29.6 72 992.8(4.0/3h) 10 -- -- --
15:00 7.5 4.4 3.8 OSO 18.5 -- 38.9 77 992(5.0/3h) 20 -- -- NA
14:00 7.3 4.4 4.6 OSO 16.7 -- 33.3 83 990.4(2.0/3h) 20 -- -- NA
13:00 7.1 3.1 5.1 O 25.9 -- 38.9 87 988.7(-0.6/3h) 6 -- -- Il y a de la pluie faible et continue à la station au moment de l'observation
12:00 12.6 10.2 5.0 SSO 25.9 -- 37.0 60 986.6(-3.7/3h) 18 -- -- --
11:00 12.3 10.4 5.1 SSO 18.5 -- 31.5 61 988(-4.0/3h) 20 -- -- --
10:00 12.1 10 4.6 SSO 20.4 -- 27.8 60 989.1(-4.3/3h) 20 -- -- --
09:00 10.5 8.6 5.0 S 14.8 -- 22.2 69 990.6(-4.6/3h) 17 -- -- --
08:00 9.1 6.8 4.8 S 14.8 -- 20.4 74 992.1(-4.7/3h) 19 -- -- --
07:00 8.3 5.8 5.1 S 14.8 -- 22.2 80 993.7(-4.2/3h) 20 -- -- --
06:00 8.1 5.6 5.2 S 14.8 -- 27.8 82 995.5(-3.3/3h) 17 -- 0.3/12h
--
05:00 8.6 6 5.7 SSO 16.7 -- 24.1 82 997.1(-2.7/3h) 19 -- -- --
04:00 9.1 6.6 6.1 SSO 16.7 -- 24.1 81 998(-2.9/3h) 20 -- -- --
03:00 9.8 7.5 7.0 SSO 16.7 -- 27.8 83 998.8(-2.9/3h) 20 -- -- --
02:00 9.9 7.6 7.5 SSO 16.7 -- 27.8 85 999.9(-2.7/3h) 20 -- -- --
01:00 9.1 6.6 7.4 SSO 16.7 -- 24.1 89 1001.1(-2.5/3h) 19 -- -- --
00:00 8.1 5.4 7.1 SSO 16.7 -- 31.5 93 1001.8(-2.4/3h) 19 -- 0.3/6h
NA

1 Coordinated Universal Time. Actuellement il est 18:00 locale et 16:00 UTC.

2 Le vent souffle depuis la direction indiquée vers la direction oposée.

3 Les rafales max. sont disponible 40 min après l'heure du relevé.

4 Pour les stations d'altitude (plus de 600m) le géopotentiel du niveau le plus proche de la pression obligatoire est indiqué.

5 Les stations disposant d'un diffuseur peuvent indiquer "trace". Cela signifie que des précipitations ont touchés le sol mais que la quantité est inférieure à 0.1 mm.

Récapitulatif de la journée
Température [°C] Vent [km/h] Ensoleillement4 [h] Precipitations totale5 [mm] Pression [Hpa]
Min1 Max.2 Moy.3 Max. Min Max.
4.4 12.9 0 38.9 0 h 0 min 0 986.6 1001.8

1 Température minimale relevée entre 18:00 UTC la veille et 18:00 UTC le jour donné.

2 Température maximale relevée entre 06:00 UTC le jour donné et 06:00 UTC le lendemain.

3 Vent moyen de la journée basé sur les relevés horaires.

4 Ensoleillement en heures relevé entre 06:00 UTC la veille et 06:00 UTC le jour donné.

5 Précipitations totales tombées entre 06:00 UTC la jour donné et 06:00 UTC le lendemain.

Graphiques horaires